sensor_id;sensor_type;location;lat;lon;timestamp;P1;durP1;ratioP1;P2;durP2;ratioP2
60502;SDS011;51448;51.660;5.824;2023-02-15T00:00:10;37.10;;;28.92;;
60502;SDS011;51448;51.660;5.824;2023-02-15T00:02:39;41.85;;;30.20;;
60502;SDS011;51448;51.660;5.824;2023-02-15T00:05:07;38.35;;;27.95;;
60502;SDS011;51448;51.660;5.824;2023-02-15T00:07:35;38.88;;;28.48;;
60502;SDS011;51448;51.660;5.824;2023-02-15T00:10:03;36.88;;;28.17;;
60502;SDS011;51448;51.660;5.824;2023-02-15T00:12:31;38.03;;;26.42;;
60502;SDS011;51448;51.660;5.824;2023-02-15T00:14:59;37.65;;;26.90;;
60502;SDS011;51448;51.660;5.824;2023-02-15T00:17:28;37.45;;;27.90;;
60502;SDS011;51448;51.660;5.824;2023-02-15T00:19:56;38.72;;;27.15;;
60502;SDS011;51448;51.660;5.824;2023-02-15T00:22:23;35.67;;;26.85;;
60502;SDS011;51448;51.660;5.824;2023-02-15T00:24:52;36.05;;;28.15;;
60502;SDS011;51448;51.660;5.824;2023-02-15T00:27:20;42.65;;;31.33;;
60502;SDS011;51448;51.660;5.824;2023-02-15T00:29:48;39.75;;;29.50;;
60502;SDS011;51448;51.660;5.824;2023-02-15T00:32:15;41.75;;;28.20;;
60502;SDS011;51448;51.660;5.824;2023-02-15T00:34:43;39.45;;;29.52;;
60502;SDS011;51448;51.660;5.824;2023-02-15T00:37:11;34.72;;;26.50;;
60502;SDS011;51448;51.660;5.824;2023-02-15T00:39:38;36.85;;;28.48;;
60502;SDS011;51448;51.660;5.824;2023-02-15T00:42:06;36.83;;;28.25;;
60502;SDS011;51448;51.660;5.824;2023-02-15T00:44:33;45.15;;;31.85;;
60502;SDS011;51448;51.660;5.824;2023-02-15T00:47:01;43.22;;;31.30;;
60502;SDS011;51448;51.660;5.824;2023-02-15T00:49:29;44.58;;;31.80;;
60502;SDS011;51448;51.660;5.824;2023-02-15T00:51:57;44.75;;;31.90;;
60502;SDS011;51448;51.660;5.824;2023-02-15T00:54:24;39.78;;;28.48;;
60502;SDS011;51448;51.660;5.824;2023-02-15T00:56:52;38.00;;;28.90;;
60502;SDS011;51448;51.660;5.824;2023-02-15T00:59:19;39.28;;;29.48;;
60502;SDS011;51448;51.660;5.824;2023-02-15T01:01:48;40.35;;;28.90;;
60502;SDS011;51448;51.660;5.824;2023-02-15T01:04:16;39.47;;;30.15;;
60502;SDS011;51448;51.660;5.824;2023-02-15T01:06:44;38.25;;;29.15;;
60502;SDS011;51448;51.660;5.824;2023-02-15T01:09:12;41.63;;;29.58;;
60502;SDS011;51448;51.660;5.824;2023-02-15T01:11:40;42.85;;;30.25;;
60502;SDS011;51448;51.660;5.824;2023-02-15T01:14:08;42.22;;;32.08;;
60502;SDS011;51448;51.660;5.824;2023-02-15T01:16:38;42.47;;;30.80;;
60502;SDS011;51448;51.660;5.824;2023-02-15T01:19:06;40.90;;;29.65;;
60502;SDS011;51448;51.660;5.824;2023-02-15T01:21:33;39.85;;;28.15;;
60502;SDS011;51448;51.660;5.824;2023-02-15T01:24:02;42.25;;;30.60;;
60502;SDS011;51448;51.660;5.824;2023-02-15T01:26:30;41.50;;;29.48;;
60502;SDS011;51448;51.660;5.824;2023-02-15T01:28:58;36.15;;;27.65;;
60502;SDS011;51448;51.660;5.824;2023-02-15T01:31:26;41.67;;;29.95;;
60502;SDS011;51448;51.660;5.824;2023-02-15T01:33:54;42.25;;;30.60;;
60502;SDS011;51448;51.660;5.824;2023-02-15T01:36:21;36.95;;;29.05;;
60502;SDS011;51448;51.660;5.824;2023-02-15T01:38:51;37.72;;;28.85;;
60502;SDS011;51448;51.660;5.824;2023-02-15T01:41:19;38.85;;;27.70;;
60502;SDS011;51448;51.660;5.824;2023-02-15T01:43:58;36.90;;;27.05;;
60502;SDS011;51448;51.660;5.824;2023-02-15T01:46:44;38.35;;;27.55;;
60502;SDS011;51448;51.660;5.824;2023-02-15T01:49:20;35.45;;;27.75;;
60502;SDS011;51448;51.660;5.824;2023-02-15T01:51:54;37.70;;;28.83;;
60502;SDS011;51448;51.660;5.824;2023-02-15T01:54:26;34.45;;;27.33;;
60502;SDS011;51448;51.660;5.824;2023-02-15T01:57:00;36.03;;;27.38;;
60502;SDS011;51448;51.660;5.824;2023-02-15T01:59:35;35.78;;;27.98;;
60502;SDS011;51448;51.660;5.824;2023-02-15T02:02:09;36.80;;;26.92;;
60502;SDS011;51448;51.660;5.824;2023-02-15T02:04:48;37.13;;;27.35;;
60502;SDS011;51448;51.660;5.824;2023-02-15T02:07:20;36.72;;;28.40;;
60502;SDS011;51448;51.660;5.824;2023-02-15T02:09:54;36.75;;;28.30;;
60502;SDS011;51448;51.660;5.824;2023-02-15T02:12:23;41.83;;;30.05;;
60502;SDS011;51448;51.660;5.824;2023-02-15T02:14:52;39.88;;;29.88;;
60502;SDS011;51448;51.660;5.824;2023-02-15T02:17:29;44.08;;;30.98;;
60502;SDS011;51448;51.660;5.824;2023-02-15T02:20:22;35.78;;;28.33;;
60502;SDS011;51448;51.660;5.824;2023-02-15T02:41:24;40.80;;;29.90;;
60502;SDS011;51448;51.660;5.824;2023-02-15T02:44:15;44.47;;;30.83;;
60502;SDS011;51448;51.660;5.824;2023-02-15T02:46:54;42.22;;;29.52;;
60502;SDS011;51448;51.660;5.824;2023-02-15T02:49:37;40.85;;;29.10;;
60502;SDS011;51448;51.660;5.824;2023-02-15T02:55:19;43.35;;;31.23;;
60502;SDS011;51448;51.660;5.824;2023-02-15T03:03:47;40.40;;;29.60;;
60502;SDS011;51448;51.660;5.824;2023-02-15T03:06:46;43.85;;;30.75;;
60502;SDS011;51448;51.660;5.824;2023-02-15T03:09:28;43.97;;;29.70;;
60502;SDS011;51448;51.660;5.824;2023-02-15T03:12:14;42.65;;;29.45;;
60502;SDS011;51448;51.660;5.824;2023-02-15T03:14:51;41.00;;;29.00;;
60502;SDS011;51448;51.660;5.824;2023-02-15T03:17:25;39.20;;;29.13;;
60502;SDS011;51448;51.660;5.824;2023-02-15T03:20:16;38.78;;;28.13;;
60502;SDS011;51448;51.660;5.824;2023-02-15T03:22:57;40.00;;;28.37;;
60502;SDS011;51448;51.660;5.824;2023-02-15T03:25:36;38.03;;;27.73;;
60502;SDS011;51448;51.660;5.824;2023-02-15T03:28:12;41.40;;;28.85;;
60502;SDS011;51448;51.660;5.824;2023-02-15T03:30:48;37.05;;;27.88;;
60502;SDS011;51448;51.660;5.824;2023-02-15T03:33:23;36.53;;;26.92;;
60502;SDS011;51448;51.660;5.824;2023-02-15T03:35:54;41.15;;;29.98;;
60502;SDS011;51448;51.660;5.824;2023-02-15T03:41:37;36.03;;;27.65;;
60502;SDS011;51448;51.660;5.824;2023-02-15T03:44:18;33.97;;;26.20;;
60502;SDS011;51448;51.660;5.824;2023-02-15T03:49:43;34.20;;;25.92;;
60502;SDS011;51448;51.660;5.824;2023-02-15T03:52:23;34.75;;;26.13;;
60502;SDS011;51448;51.660;5.824;2023-02-15T03:54:55;38.05;;;27.45;;
60502;SDS011;51448;51.660;5.824;2023-02-15T03:57:25;35.67;;;26.50;;
60502;SDS011;51448;51.660;5.824;2023-02-15T04:00:15;37.45;;;27.40;;
60502;SDS011;51448;51.660;5.824;2023-02-15T04:06:01;37.58;;;27.08;;
60502;SDS011;51448;51.660;5.824;2023-02-15T04:08:30;37.67;;;27.50;;
60502;SDS011;51448;51.660;5.824;2023-02-15T04:11:16;37.80;;;27.83;;
60502;SDS011;51448;51.660;5.824;2023-02-15T04:13:44;37.88;;;28.23;;
60502;SDS011;51448;51.660;5.824;2023-02-15T04:16:12;39.25;;;27.75;;
60502;SDS011;51448;51.660;5.824;2023-02-15T04:18:41;38.15;;;28.13;;
60502;SDS011;51448;51.660;5.824;2023-02-15T04:21:29;42.05;;;30.42;;
60502;SDS011;51448;51.660;5.824;2023-02-15T04:24:16;40.35;;;29.67;;
60502;SDS011;51448;51.660;5.824;2023-02-15T04:27:03;40.83;;;29.20;;
60502;SDS011;51448;51.660;5.824;2023-02-15T04:29:33;41.17;;;28.42;;
60502;SDS011;51448;51.660;5.824;2023-02-15T04:32:01;42.25;;;30.17;;
60502;SDS011;51448;51.660;5.824;2023-02-15T04:34:29;40.13;;;29.80;;
60502;SDS011;51448;51.660;5.824;2023-02-15T04:36:57;42.95;;;29.27;;
60502;SDS011;51448;51.660;5.824;2023-02-15T04:39:24;39.22;;;29.33;;
60502;SDS011;51448;51.660;5.824;2023-02-15T04:41:52;42.00;;;29.45;;
60502;SDS011;51448;51.660;5.824;2023-02-15T04:44:19;39.17;;;28.63;;
60502;SDS011;51448;51.660;5.824;2023-02-15T04:46:47;35.08;;;26.50;;
60502;SDS011;51448;51.660;5.824;2023-02-15T04:49:15;41.00;;;30.27;;
60502;SDS011;51448;51.660;5.824;2023-02-15T04:51:42;42.42;;;29.13;;
60502;SDS011;51448;51.660;5.824;2023-02-15T04:54:10;42.75;;;30.77;;
60502;SDS011;51448;51.660;5.824;2023-02-15T04:56:37;42.45;;;30.15;;
60502;SDS011;51448;51.660;5.824;2023-02-15T04:59:06;44.88;;;31.98;;
60502;SDS011;51448;51.660;5.824;2023-02-15T05:01:37;41.83;;;30.30;;
60502;SDS011;51448;51.660;5.824;2023-02-15T05:04:05;43.47;;;31.10;;
60502;SDS011;51448;51.660;5.824;2023-02-15T05:06:33;43.47;;;30.58;;
60502;SDS011;51448;51.660;5.824;2023-02-15T05:09:01;42.03;;;30.73;;
60502;SDS011;51448;51.660;5.824;2023-02-15T05:11:29;42.22;;;31.60;;
60502;SDS011;51448;51.660;5.824;2023-02-15T05:13:57;43.05;;;31.15;;
60502;SDS011;51448;51.660;5.824;2023-02-15T05:16:24;43.22;;;29.55;;
60502;SDS011;51448;51.660;5.824;2023-02-15T05:18:55;52.40;;;35.45;;
60502;SDS011;51448;51.660;5.824;2023-02-15T05:21:22;49.33;;;32.80;;
60502;SDS011;51448;51.660;5.824;2023-02-15T05:23:51;52.38;;;36.28;;
60502;SDS011;51448;51.660;5.824;2023-02-15T05:26:20;45.72;;;33.53;;
60502;SDS011;51448;51.660;5.824;2023-02-15T05:29:08;51.05;;;33.75;;
60502;SDS011;51448;51.660;5.824;2023-02-15T05:31:38;49.45;;;33.13;;
60502;SDS011;51448;51.660;5.824;2023-02-15T05:34:06;47.55;;;34.28;;
60502;SDS011;51448;51.660;5.824;2023-02-15T05:36:33;45.67;;;32.83;;
60502;SDS011;51448;51.660;5.824;2023-02-15T05:39:01;47.78;;;33.47;;
60502;SDS011;51448;51.660;5.824;2023-02-15T05:41:31;46.15;;;33.78;;
60502;SDS011;51448;51.660;5.824;2023-02-15T05:43:58;48.25;;;35.20;;
60502;SDS011;51448;51.660;5.824;2023-02-15T05:46:26;52.53;;;36.50;;
60502;SDS011;51448;51.660;5.824;2023-02-15T05:48:53;50.17;;;33.25;;
60502;SDS011;51448;51.660;5.824;2023-02-15T05:51:21;51.35;;;35.15;;
60502;SDS011;51448;51.660;5.824;2023-02-15T05:53:49;50.55;;;35.67;;
60502;SDS011;51448;51.660;5.824;2023-02-15T05:56:16;51.05;;;34.85;;
60502;SDS011;51448;51.660;5.824;2023-02-15T05:58:44;50.70;;;33.92;;
60502;SDS011;51448;51.660;5.824;2023-02-15T06:01:13;49.67;;;34.92;;
60502;SDS011;51448;51.660;5.824;2023-02-15T06:03:49;49.03;;;34.75;;
60502;SDS011;51448;51.660;5.824;2023-02-15T06:06:17;51.67;;;33.67;;
60502;SDS011;51448;51.660;5.824;2023-02-15T06:08:45;46.00;;;32.80;;
60502;SDS011;51448;51.660;5.824;2023-02-15T06:11:13;52.53;;;35.88;;
60502;SDS011;51448;51.660;5.824;2023-02-15T06:13:40;55.58;;;36.15;;
60502;SDS011;51448;51.660;5.824;2023-02-15T06:16:08;55.67;;;35.38;;
60502;SDS011;51448;51.660;5.824;2023-02-15T06:18:36;50.38;;;35.42;;
60502;SDS011;51448;51.660;5.824;2023-02-15T06:21:04;55.78;;;37.22;;
60502;SDS011;51448;51.660;5.824;2023-02-15T06:23:31;53.85;;;35.97;;
60502;SDS011;51448;51.660;5.824;2023-02-15T06:25:59;48.85;;;34.13;;
60502;SDS011;51448;51.660;5.824;2023-02-15T06:28:27;46.63;;;32.92;;
60502;SDS011;51448;51.660;5.824;2023-02-15T06:30:55;48.70;;;32.38;;
60502;SDS011;51448;51.660;5.824;2023-02-15T06:33:23;48.58;;;33.22;;
60502;SDS011;51448;51.660;5.824;2023-02-15T06:35:50;50.22;;;34.47;;
60502;SDS011;51448;51.660;5.824;2023-02-15T06:38:18;54.97;;;36.13;;
60502;SDS011;51448;51.660;5.824;2023-02-15T06:40:46;63.58;;;39.20;;
60502;SDS011;51448;51.660;5.824;2023-02-15T06:43:13;55.47;;;37.28;;
60502;SDS011;51448;51.660;5.824;2023-02-15T06:45:41;54.70;;;37.13;;
60502;SDS011;51448;51.660;5.824;2023-02-15T06:48:09;50.70;;;34.00;;
60502;SDS011;51448;51.660;5.824;2023-02-15T06:50:38;53.97;;;37.65;;
60502;SDS011;51448;51.660;5.824;2023-02-15T06:53:05;55.65;;;36.83;;
60502;SDS011;51448;51.660;5.824;2023-02-15T06:55:33;52.67;;;36.55;;
60502;SDS011;51448;51.660;5.824;2023-02-15T06:58:01;52.05;;;36.38;;
60502;SDS011;51448;51.660;5.824;2023-02-15T07:00:28;51.47;;;35.15;;
60502;SDS011;51448;51.660;5.824;2023-02-15T07:02:57;49.90;;;35.35;;
60502;SDS011;51448;51.660;5.824;2023-02-15T07:05:26;50.80;;;35.15;;
60502;SDS011;51448;51.660;5.824;2023-02-15T07:07:58;48.75;;;35.40;;
60502;SDS011;51448;51.660;5.824;2023-02-15T07:10:26;53.13;;;34.92;;
60502;SDS011;51448;51.660;5.824;2023-02-15T07:12:55;69.53;;;40.10;;
60502;SDS011;51448;51.660;5.824;2023-02-15T07:15:23;69.80;;;43.22;;
60502;SDS011;51448;51.660;5.824;2023-02-15T07:17:51;52.85;;;40.35;;
60502;SDS011;51448;51.660;5.824;2023-02-15T07:20:20;55.70;;;38.08;;
60502;SDS011;51448;51.660;5.824;2023-02-15T07:22:50;55.45;;;38.97;;
60502;SDS011;51448;51.660;5.824;2023-02-15T07:25:18;58.33;;;38.42;;
60502;SDS011;51448;51.660;5.824;2023-02-15T07:27:47;66.88;;;42.53;;
60502;SDS011;51448;51.660;5.824;2023-02-15T07:30:15;64.63;;;41.80;;
60502;SDS011;51448;51.660;5.824;2023-02-15T07:32:44;63.83;;;42.17;;
60502;SDS011;51448;51.660;5.824;2023-02-15T07:35:32;70.55;;;45.92;;
60502;SDS011;51448;51.660;5.824;2023-02-15T07:38:00;75.15;;;49.22;;
60502;SDS011;51448;51.660;5.824;2023-02-15T07:40:28;81.72;;;48.35;;
60502;SDS011;51448;51.660;5.824;2023-02-15T07:42:57;71.63;;;46.47;;
60502;SDS011;51448;51.660;5.824;2023-02-15T07:45:26;76.05;;;46.92;;
60502;SDS011;51448;51.660;5.824;2023-02-15T07:47:54;71.97;;;47.78;;
60502;SDS011;51448;51.660;5.824;2023-02-15T07:50:21;77.07;;;48.95;;
60502;SDS011;51448;51.660;5.824;2023-02-15T07:52:49;77.40;;;48.13;;
60502;SDS011;51448;51.660;5.824;2023-02-15T07:55:17;77.65;;;46.97;;
60502;SDS011;51448;51.660;5.824;2023-02-15T07:57:45;80.10;;;49.47;;
60502;SDS011;51448;51.660;5.824;2023-02-15T08:00:16;74.57;;;47.63;;
60502;SDS011;51448;51.660;5.824;2023-02-15T08:02:55;73.53;;;47.65;;
60502;SDS011;51448;51.660;5.824;2023-02-15T08:05:43;63.67;;;43.40;;
60502;SDS011;51448;51.660;5.824;2023-02-15T08:08:12;71.72;;;45.97;;
60502;SDS011;51448;51.660;5.824;2023-02-15T08:11:06;64.90;;;44.20;;
60502;SDS011;51448;51.660;5.824;2023-02-15T08:14:06;62.45;;;42.75;;
60502;SDS011;51448;51.660;5.824;2023-02-15T08:19:25;66.30;;;44.53;;
60502;SDS011;51448;51.660;5.824;2023-02-15T08:21:56;69.40;;;46.35;;
60502;SDS011;51448;51.660;5.824;2023-02-15T08:24:31;63.45;;;43.97;;
60502;SDS011;51448;51.660;5.824;2023-02-15T08:27:02;65.28;;;43.85;;
60502;SDS011;51448;51.660;5.824;2023-02-15T08:29:33;62.72;;;42.38;;
60502;SDS011;51448;51.660;5.824;2023-02-15T08:32:06;60.90;;;42.10;;
60502;SDS011;51448;51.660;5.824;2023-02-15T08:34:40;70.18;;;43.95;;
60502;SDS011;51448;51.660;5.824;2023-02-15T08:37:09;61.80;;;41.47;;
60502;SDS011;51448;51.660;5.824;2023-02-15T08:39:36;66.10;;;43.00;;
60502;SDS011;51448;51.660;5.824;2023-02-15T08:42:04;62.20;;;41.80;;
60502;SDS011;51448;51.660;5.824;2023-02-15T08:44:32;64.22;;;43.40;;
60502;SDS011;51448;51.660;5.824;2023-02-15T08:46:59;64.70;;;43.67;;
60502;SDS011;51448;51.660;5.824;2023-02-15T08:49:31;62.75;;;41.60;;
60502;SDS011;51448;51.660;5.824;2023-02-15T08:51:58;65.45;;;44.25;;
60502;SDS011;51448;51.660;5.824;2023-02-15T08:54:27;62.15;;;42.70;;
60502;SDS011;51448;51.660;5.824;2023-02-15T08:56:54;58.95;;;43.78;;
60502;SDS011;51448;51.660;5.824;2023-02-15T08:59:22;64.30;;;45.95;;
60502;SDS011;51448;51.660;5.824;2023-02-15T09:01:51;59.47;;;42.45;;
60502;SDS011;51448;51.660;5.824;2023-02-15T09:04:20;63.75;;;42.78;;
60502;SDS011;51448;51.660;5.824;2023-02-15T09:06:49;61.78;;;43.17;;
60502;SDS011;51448;51.660;5.824;2023-02-15T09:09:18;57.00;;;40.13;;
60502;SDS011;51448;51.660;5.824;2023-02-15T09:11:47;60.22;;;40.97;;
60502;SDS011;51448;51.660;5.824;2023-02-15T09:14:25;59.78;;;40.88;;
60502;SDS011;51448;51.660;5.824;2023-02-15T09:16:54;58.80;;;42.25;;
60502;SDS011;51448;51.660;5.824;2023-02-15T09:19:22;53.05;;;38.45;;
60502;SDS011;51448;51.660;5.824;2023-02-15T09:21:51;54.53;;;39.55;;
60502;SDS011;51448;51.660;5.824;2023-02-15T09:24:19;53.35;;;39.35;;
60502;SDS011;51448;51.660;5.824;2023-02-15T09:26:47;59.53;;;41.30;;
60502;SDS011;51448;51.660;5.824;2023-02-15T09:29:16;55.88;;;40.33;;
60502;SDS011;51448;51.660;5.824;2023-02-15T09:31:46;56.38;;;40.25;;
60502;SDS011;51448;51.660;5.824;2023-02-15T09:34:18;54.33;;;40.08;;
60502;SDS011;51448;51.660;5.824;2023-02-15T09:36:48;51.78;;;37.17;;
60502;SDS011;51448;51.660;5.824;2023-02-15T09:39:22;49.35;;;35.88;;
60502;SDS011;51448;51.660;5.824;2023-02-15T09:50:21;54.90;;;39.08;;
60502;SDS011;51448;51.660;5.824;2023-02-15T09:59:41;51.47;;;35.63;;
60502;SDS011;51448;51.660;5.824;2023-02-15T10:06:22;47.60;;;33.40;;
60502;SDS011;51448;51.660;5.824;2023-02-15T10:23:02;44.33;;;30.15;;
60502;SDS011;51448;51.660;5.824;2023-02-15T10:28:53;43.60;;;30.33;;
60502;SDS011;51448;51.660;5.824;2023-02-15T10:34:26;43.55;;;29.15;;
60502;SDS011;51448;51.660;5.824;2023-02-15T10:57:40;39.67;;;27.55;;
60502;SDS011;51448;51.660;5.824;2023-02-15T11:06:09;38.45;;;25.27;;
60502;SDS011;51448;51.660;5.824;2023-02-15T11:08:44;38.53;;;25.48;;
60502;SDS011;51448;51.660;5.824;2023-02-15T11:11:21;40.83;;;27.40;;
60502;SDS011;51448;51.660;5.824;2023-02-15T11:13:57;41.97;;;28.55;;
60502;SDS011;51448;51.660;5.824;2023-02-15T11:16:34;36.70;;;26.08;;
60502;SDS011;51448;51.660;5.824;2023-02-15T11:19:13;35.28;;;24.65;;
60502;SDS011;51448;51.660;5.824;2023-02-15T11:21:50;36.67;;;26.55;;
60502;SDS011;51448;51.660;5.824;2023-02-15T11:24:26;37.67;;;25.10;;
60502;SDS011;51448;51.660;5.824;2023-02-15T11:27:02;37.03;;;25.00;;
60502;SDS011;51448;51.660;5.824;2023-02-15T11:29:59;35.10;;;24.85;;
60502;SDS011;51448;51.660;5.824;2023-02-15T11:32:46;39.00;;;26.95;;
60502;SDS011;51448;51.660;5.824;2023-02-15T11:38:03;34.60;;;26.35;;
60502;SDS011;51448;51.660;5.824;2023-02-15T11:40:48;36.35;;;25.50;;
60502;SDS011;51448;51.660;5.824;2023-02-15T11:43:28;36.38;;;26.35;;
60502;SDS011;51448;51.660;5.824;2023-02-15T11:46:18;37.83;;;26.58;;
60502;SDS011;51448;51.660;5.824;2023-02-15T11:48:48;36.80;;;26.75;;
60502;SDS011;51448;51.660;5.824;2023-02-15T11:51:19;38.28;;;26.27;;
60502;SDS011;51448;51.660;5.824;2023-02-15T11:53:50;41.72;;;25.63;;
60502;SDS011;51448;51.660;5.824;2023-02-15T11:56:22;35.83;;;24.63;;
60502;SDS011;51448;51.660;5.824;2023-02-15T11:59:13;38.10;;;26.15;;
60502;SDS011;51448;51.660;5.824;2023-02-15T12:01:51;39.38;;;26.15;;
60502;SDS011;51448;51.660;5.824;2023-02-15T12:04:24;38.13;;;26.23;;
60502;SDS011;51448;51.660;5.824;2023-02-15T12:10:25;34.92;;;24.77;;
60502;SDS011;51448;51.660;5.824;2023-02-15T12:13:11;40.70;;;25.27;;
60502;SDS011;51448;51.660;5.824;2023-02-15T12:15:45;34.70;;;24.02;;
60502;SDS011;51448;51.660;5.824;2023-02-15T12:18:32;37.00;;;25.50;;
60502;SDS011;51448;51.660;5.824;2023-02-15T12:24:44;37.08;;;24.50;;
60502;SDS011;51448;51.660;5.824;2023-02-15T12:27:15;35.30;;;24.23;;
60502;SDS011;51448;51.660;5.824;2023-02-15T12:29:49;35.53;;;24.25;;
60502;SDS011;51448;51.660;5.824;2023-02-15T12:32:53;35.83;;;24.20;;
60502;SDS011;51448;51.660;5.824;2023-02-15T12:35:30;33.95;;;24.65;;
60502;SDS011;51448;51.660;5.824;2023-02-15T12:40:38;36.05;;;23.73;;
60502;SDS011;51448;51.660;5.824;2023-02-15T12:43:24;36.08;;;24.60;;
60502;SDS011;51448;51.660;5.824;2023-02-15T12:46:14;37.03;;;24.60;;
60502;SDS011;51448;51.660;5.824;2023-02-15T12:49:34;37.20;;;24.48;;
60502;SDS011;51448;51.660;5.824;2023-02-15T12:51:54;35.83;;;24.58;;
60502;SDS011;51448;51.660;5.824;2023-02-15T12:54:42;35.03;;;25.90;;
60502;SDS011;51448;51.660;5.824;2023-02-15T13:00:06;34.33;;;23.75;;
60502;SDS011;51448;51.660;5.824;2023-02-15T13:02:58;36.08;;;24.85;;
60502;SDS011;51448;51.660;5.824;2023-02-15T13:05:35;36.67;;;24.63;;
60502;SDS011;51448;51.660;5.824;2023-02-15T13:08:19;33.97;;;25.50;;
60502;SDS011;51448;51.660;5.824;2023-02-15T13:10:59;35.45;;;26.35;;
60502;SDS011;51448;51.660;5.824;2023-02-15T13:13:32;37.00;;;25.38;;
60502;SDS011;51448;51.660;5.824;2023-02-15T13:16:05;35.53;;;25.45;;
60502;SDS011;51448;51.660;5.824;2023-02-15T13:18:44;32.97;;;25.05;;
60502;SDS011;51448;51.660;5.824;2023-02-15T13:23:47;34.90;;;24.80;;
60502;SDS011;51448;51.660;5.824;2023-02-15T13:26:21;37.88;;;25.77;;
60502;SDS011;51448;51.660;5.824;2023-02-15T13:28:54;32.80;;;23.65;;
60502;SDS011;51448;51.660;5.824;2023-02-15T13:31:32;36.55;;;25.13;;
60502;SDS011;51448;51.660;5.824;2023-02-15T13:34:06;35.05;;;25.58;;
60502;SDS011;51448;51.660;5.824;2023-02-15T13:36:56;36.45;;;25.80;;
60502;SDS011;51448;51.660;5.824;2023-02-15T13:49:07;34.78;;;25.48;;
60502;SDS011;51448;51.660;5.824;2023-02-15T13:54:36;36.42;;;25.13;;
60502;SDS011;51448;51.660;5.824;2023-02-15T14:09:33;34.13;;;24.80;;
60502;SDS011;51448;51.660;5.824;2023-02-15T14:12:30;36.13;;;24.63;;
60502;SDS011;51448;51.660;5.824;2023-02-15T14:19:04;37.65;;;26.08;;
60502;SDS011;51448;51.660;5.824;2023-02-15T14:21:25;35.85;;;25.67;;
60502;SDS011;51448;51.660;5.824;2023-02-15T14:26:47;35.83;;;25.17;;
60502;SDS011;51448;51.660;5.824;2023-02-15T14:32:00;35.40;;;26.90;;
60502;SDS011;51448;51.660;5.824;2023-02-15T14:34:44;37.08;;;26.45;;
60502;SDS011;51448;51.660;5.824;2023-02-15T14:38:13;39.13;;;27.33;;
60502;SDS011;51448;51.660;5.824;2023-02-15T14:47:11;37.80;;;27.70;;
60502;SDS011;51448;51.660;5.824;2023-02-15T14:49:49;38.42;;;28.40;;
60502;SDS011;51448;51.660;5.824;2023-02-15T14:52:16;38.28;;;28.13;;
60502;SDS011;51448;51.660;5.824;2023-02-15T15:02:29;39.20;;;26.88;;
60502;SDS011;51448;51.660;5.824;2023-02-15T15:05:20;38.00;;;27.15;;
60502;SDS011;51448;51.660;5.824;2023-02-15T15:08:00;36.65;;;27.25;;
60502;SDS011;51448;51.660;5.824;2023-02-15T15:10:33;36.38;;;25.80;;
60502;SDS011;51448;51.660;5.824;2023-02-15T15:13:34;37.88;;;26.20;;
60502;SDS011;51448;51.660;5.824;2023-02-15T15:18:51;37.53;;;26.17;;
60502;SDS011;51448;51.660;5.824;2023-02-15T15:41:42;35.90;;;25.27;;
60502;SDS011;51448;51.660;5.824;2023-02-15T15:50:25;36.72;;;23.23;;
60502;SDS011;51448;51.660;5.824;2023-02-15T15:52:53;37.50;;;24.23;;
60502;SDS011;51448;51.660;5.824;2023-02-15T15:55:26;38.63;;;24.83;;
60502;SDS011;51448;51.660;5.824;2023-02-15T15:58:00;34.78;;;22.98;;
60502;SDS011;51448;51.660;5.824;2023-02-15T16:00:51;37.63;;;23.73;;
60502;SDS011;51448;51.660;5.824;2023-02-15T16:03:27;37.10;;;24.33;;
60502;SDS011;51448;51.660;5.824;2023-02-15T16:05:56;36.42;;;22.58;;
60502;SDS011;51448;51.660;5.824;2023-02-15T16:08:29;38.78;;;22.63;;
60502;SDS011;51448;51.660;5.824;2023-02-15T16:11:48;37.45;;;23.27;;
60502;SDS011;51448;51.660;5.824;2023-02-15T16:13:58;36.63;;;21.67;;
60502;SDS011;51448;51.660;5.824;2023-02-15T16:16:27;38.20;;;23.00;;
60502;SDS011;51448;51.660;5.824;2023-02-15T16:18:56;41.50;;;24.38;;
60502;SDS011;51448;51.660;5.824;2023-02-15T16:21:28;39.72;;;24.48;;
60502;SDS011;51448;51.660;5.824;2023-02-15T16:29:48;36.47;;;23.40;;
60502;SDS011;51448;51.660;5.824;2023-02-15T16:32:18;39.28;;;24.23;;
60502;SDS011;51448;51.660;5.824;2023-02-15T16:34:56;38.45;;;24.58;;
60502;SDS011;51448;51.660;5.824;2023-02-15T16:37:27;35.88;;;24.48;;
60502;SDS011;51448;51.660;5.824;2023-02-15T16:40:00;36.38;;;24.90;;
60502;SDS011;51448;51.660;5.824;2023-02-15T16:42:28;41.55;;;26.02;;
60502;SDS011;51448;51.660;5.824;2023-02-15T16:47:44;36.90;;;25.60;;
60502;SDS011;51448;51.660;5.824;2023-02-15T16:53:22;43.83;;;26.33;;
60502;SDS011;51448;51.660;5.824;2023-02-15T16:55:57;36.97;;;24.42;;
60502;SDS011;51448;51.660;5.824;2023-02-15T16:58:31;39.72;;;26.85;;
60502;SDS011;51448;51.660;5.824;2023-02-15T17:03:42;38.47;;;26.35;;
60502;SDS011;51448;51.660;5.824;2023-02-15T17:06:23;42.45;;;26.25;;
60502;SDS011;51448;51.660;5.824;2023-02-15T17:08:53;42.08;;;27.85;;
60502;SDS011;51448;51.660;5.824;2023-02-15T17:11:34;39.28;;;26.70;;
60502;SDS011;51448;51.660;5.824;2023-02-15T17:14:11;41.13;;;27.20;;
60502;SDS011;51448;51.660;5.824;2023-02-15T17:19:17;42.58;;;28.15;;
60502;SDS011;51448;51.660;5.824;2023-02-15T17:22:01;43.15;;;28.23;;
60502;SDS011;51448;51.660;5.824;2023-02-15T17:24:35;39.45;;;28.80;;
60502;SDS011;51448;51.660;5.824;2023-02-15T17:27:11;46.42;;;28.63;;
60502;SDS011;51448;51.660;5.824;2023-02-15T17:29:50;41.10;;;29.30;;
60502;SDS011;51448;51.660;5.824;2023-02-15T17:32:24;43.88;;;28.88;;
60502;SDS011;51448;51.660;5.824;2023-02-15T17:37:27;46.33;;;30.13;;
60502;SDS011;51448;51.660;5.824;2023-02-15T17:40:23;39.20;;;27.10;;
60502;SDS011;51448;51.660;5.824;2023-02-15T17:42:54;41.35;;;29.23;;
60502;SDS011;51448;51.660;5.824;2023-02-15T17:45:24;38.92;;;29.30;;
60502;SDS011;51448;51.660;5.824;2023-02-15T17:47:59;42.80;;;29.30;;
60502;SDS011;51448;51.660;5.824;2023-02-15T17:50:32;41.63;;;29.45;;
60502;SDS011;51448;51.660;5.824;2023-02-15T17:53:00;42.70;;;29.85;;
60502;SDS011;51448;51.660;5.824;2023-02-15T17:55:28;39.80;;;29.67;;
60502;SDS011;51448;51.660;5.824;2023-02-15T17:58:03;41.17;;;29.85;;
60502;SDS011;51448;51.660;5.824;2023-02-15T18:00:46;42.05;;;29.60;;
60502;SDS011;51448;51.660;5.824;2023-02-15T18:03:39;43.00;;;29.35;;
60502;SDS011;51448;51.660;5.824;2023-02-15T18:06:28;45.95;;;29.60;;
60502;SDS011;51448;51.660;5.824;2023-02-15T18:09:16;40.72;;;29.23;;
60502;SDS011;51448;51.660;5.824;2023-02-15T18:14:55;45.38;;;29.67;;
60502;SDS011;51448;51.660;5.824;2023-02-15T18:17:37;39.80;;;28.55;;
60502;SDS011;51448;51.660;5.824;2023-02-15T18:20:14;39.92;;;28.02;;
60502;SDS011;51448;51.660;5.824;2023-02-15T18:22:46;42.63;;;28.75;;
60502;SDS011;51448;51.660;5.824;2023-02-15T18:25:15;42.90;;;28.73;;
60502;SDS011;51448;51.660;5.824;2023-02-15T18:27:45;40.22;;;27.73;;
60502;SDS011;51448;51.660;5.824;2023-02-15T18:30:14;39.50;;;28.70;;
60502;SDS011;51448;51.660;5.824;2023-02-15T18:32:45;40.83;;;28.92;;
60502;SDS011;51448;51.660;5.824;2023-02-15T18:35:18;41.17;;;28.48;;
60502;SDS011;51448;51.660;5.824;2023-02-15T18:37:50;39.92;;;28.13;;
60502;SDS011;51448;51.660;5.824;2023-02-15T18:40:21;39.17;;;28.20;;